Time;durP1;ratioP1;P1;durP2;ratioP2;P2;SDS_P1;SDS_P2;PMS_P1;PMS_P2;Temp;Humidity;BMP_temperature;BMP_pressure;BME280_temperature;BME280_humidity;BME280_pressure;Samples;Min_cycle;Max_cycle;Signal;HPM_P1;HPM_P2
2021/03/24 00:01:26;;;;;;;;;;;-1.30;69.50;;;;;;5014330;28;19964;-75
2021/03/24 00:03:52;;;;;;;;;;;-1.30;69.60;;;;;;5015105;28;20024;-76
2021/03/24 00:06:18;;;;;;;;;;;-1.30;69.70;;;;;;5016472;28;19909;-77
2021/03/24 00:08:44;;;;;;;;;;;-1.30;69.80;;;;;;4998292;28;19910;-77
2021/03/24 00:11:15;;;;;;;;;;;-1.30;70.10;;;;;;4997452;28;20390;-76
2021/03/24 00:13:42;;;;;;;;;;;-1.30;70.00;;;;;;5014929;28;19916;-75
2021/03/24 00:16:09;;;;;;;;;;;-1.20;69.80;;;;;;4996806;28;20294;-76
2021/03/24 00:18:34;;;;;;;;;;;-1.30;69.70;;;;;;5014150;28;19910;-75
2021/03/24 00:21:00;;;;;;;;;;;-1.30;69.70;;;;;;5014252;28;19940;-75
2021/03/24 00:23:26;;;;;;;;;;;-1.30;69.80;;;;;;5014414;28;20362;-76
2021/03/24 00:25:52;;;;;;;;;;;-1.30;69.90;;;;;;5014069;28;20008;-75
2021/03/24 00:28:18;;;;;;;;;;;-1.30;70.00;;;;;;5014097;28;19932;-76
2021/03/24 00:30:45;;;;;;;;;;;-1.40;69.90;;;;;;5014020;28;19910;-77
2021/03/24 00:33:11;;;;;;;;;;;-1.40;69.90;;;;;;5014178;28;20467;-76
2021/03/24 00:35:37;;;;;;;;;;;-1.50;70.00;;;;;;4995360;28;19914;-76
2021/03/24 00:38:03;;;;;;;;;;;-1.50;70.30;;;;;;5014374;28;19956;-78
2021/03/24 00:40:32;;;;;;;;;;;-1.60;70.40;;;;;;5013616;28;19918;-77
2021/03/24 00:42:58;;;;;;;;;;;-1.60;70.60;;;;;;5013447;28;19969;-76
2021/03/24 00:45:24;;;;;;;;;;;-1.60;70.70;;;;;;5013664;28;19945;-76
2021/03/24 00:47:50;;;;;;;;;;;-1.70;70.70;;;;;;4996141;28;19993;-76
2021/03/24 00:50:19;;;;;;;;;;;-1.70;71.30;;;;;;4996234;28;19910;-76
2021/03/24 00:52:45;;;;;;;;;;;-1.60;71.70;;;;;;5013539;28;19909;-76
2021/03/24 00:55:11;;;;;;;;;;;-1.60;71.50;;;;;;5012269;28;19936;-76
2021/03/24 00:57:49;;;;;;;;;;;-1.70;71.60;;;;;;5013665;28;19935;-75
2021/03/24 01:00:29;;;;;;;;;;;-1.70;71.60;;;;;;5013721;28;20449;-77
2021/03/24 01:03:15;;;;;;;;;;;-1.70;71.60;;;;;;4995920;28;19909;-78
2021/03/24 01:05:41;;;;;;;;;;;-1.70;72.10;;;;;;5013058;28;19909;-76
2021/03/24 01:08:08;;;;;;;;;;;-1.80;72.10;;;;;;5013180;28;20355;-77
2021/03/24 01:10:34;;;;;;;;;;;-1.80;72.10;;;;;;5012152;28;19932;-75
2021/03/24 01:13:00;;;;;;;;;;;-1.90;72.20;;;;;;5013118;28;20272;-74
2021/03/24 01:15:26;;;;;;;;;;;-1.90;72.30;;;;;;5013339;28;19913;-77
2021/03/24 01:17:53;;;;;;;;;;;-1.90;72.30;;;;;;5014525;28;20302;-76
2021/03/24 01:20:19;;;;;;;;;;;-1.90;72.50;;;;;;5016057;28;19924;-76
2021/03/24 01:22:48;;;;;;;;;;;-2.00;72.70;;;;;;5014876;28;19917;-75
2021/03/24 01:25:14;;;;;;;;;;;-2.00;72.70;;;;;;5013148;28;19909;-76
2021/03/24 01:27:40;;;;;;;;;;;-2.00;72.70;;;;;;5016925;28;20351;-75
2021/03/24 01:30:06;;;;;;;;;;;-2.00;72.90;;;;;;5013289;28;19916;-76
2021/03/24 01:32:32;;;;;;;;;;;-2.00;73.20;;;;;;5013589;28;19919;-75
2021/03/24 01:35:00;;;;;;;;;;;-2.00;73.50;;;;;;5016379;28;19955;-76
2021/03/24 01:37:26;;;;;;;;;;;-2.00;73.40;;;;;;5013259;28;19909;-75
2021/03/24 01:39:51;;;;;;;;;;;-2.00;73.40;;;;;;5012938;28;19909;-77
2021/03/24 01:42:17;;;;;;;;;;;-2.00;73.50;;;;;;5022235;28;19928;-75
2021/03/24 01:45:01;;;;;;;;;;;-2.00;73.70;;;;;;5032580;28;19932;-75
2021/03/24 01:47:27;;;;;;;;;;;-2.10;73.80;;;;;;5013012;28;19917;-74
2021/03/24 01:49:53;;;;;;;;;;;-2.10;74.00;;;;;;5013403;28;19914;-76
2021/03/24 01:52:19;;;;;;;;;;;-2.10;74.20;;;;;;5006818;28;19928;-74
2021/03/24 01:54:44;;;;;;;;;;;-2.20;74.40;;;;;;5041126;28;19947;-77
2021/03/24 01:57:12;;;;;;;;;;;-2.20;74.50;;;;;;5033281;28;19948;-77
2021/03/24 01:59:38;;;;;;;;;;;-2.20;74.70;;;;;;5032647;28;19913;-76
2021/03/24 02:02:08;;;;;;;;;;;-2.20;74.80;;;;;;5032373;28;19971;-76
2021/03/24 02:04:33;;;;;;;;;;;-2.20;74.70;;;;;;5033178;28;19909;-76
2021/03/24 02:07:07;;;;;;;;;;;-2.30;74.40;;;;;;5032752;28;19951;-76
2021/03/24 02:09:33;;;;;;;;;;;-2.30;74.30;;;;;;5014793;28;19916;-75
2021/03/24 02:12:03;;;;;;;;;;;-2.30;74.30;;;;;;5032581;28;20311;-76
2021/03/24 02:14:33;;;;;;;;;;;-2.40;74.30;;;;;;5014589;28;19913;-76
2021/03/24 02:16:59;;;;;;;;;;;-2.40;74.40;;;;;;5032555;28;20021;-78
2021/03/24 02:19:30;;;;;;;;;;;-2.40;74.70;;;;;;5031130;28;19945;-76
2021/03/24 02:21:56;;;;;;;;;;;-2.40;74.80;;;;;;5036436;28;20023;-76
2021/03/24 02:24:40;;;;;;;;;;;-2.40;75.00;;;;;;5018213;28;19920;-76
2021/03/24 02:27:10;;;;;;;;;;;-2.50;75.00;;;;;;5036061;28;19909;-75
2021/03/24 02:29:40;;;;;;;;;;;-2.50;75.00;;;;;;5036223;28;19949;-76
2021/03/24 02:32:07;;;;;;;;;;;-2.50;75.00;;;;;;5036041;28;19909;-76
2021/03/24 02:34:33;;;;;;;;;;;-2.50;75.20;;;;;;5035840;28;19913;-76
2021/03/24 02:37:00;;;;;;;;;;;-2.50;75.20;;;;;;5035823;28;19913;-76
2021/03/24 02:39:26;;;;;;;;;;;-2.50;75.20;;;;;;5035677;28;19941;-76
2021/03/24 02:41:54;;;;;;;;;;;-2.50;75.30;;;;;;5035702;28;20040;-77
2021/03/24 02:44:21;;;;;;;;;;;-2.50;75.30;;;;;;5018779;28;20016;-76
2021/03/24 02:46:47;;;;;;;;;;;-2.50;75.40;;;;;;5020774;28;19909;-77
2021/03/24 02:49:13;;;;;;;;;;;-2.50;75.60;;;;;;5015963;28;19913;-76
2021/03/24 02:51:39;;;;;;;;;;;-2.50;75.60;;;;;;5029053;28;19913;-77
2021/03/24 02:54:07;;;;;;;;;;;-2.50;75.60;;;;;;5031149;28;19922;-77
2021/03/24 02:56:33;;;;;;;;;;;-2.50;75.70;;;;;;5027505;28;19910;-78
2021/03/24 02:58:58;;;;;;;;;;;-2.50;75.70;;;;;;5035835;28;20252;-76
2021/03/24 03:01:26;;;;;;;;;;;-2.50;75.90;;;;;;5018093;28;19921;-76
2021/03/24 03:04:01;;;;;;;;;;;-2.50;75.50;;;;;;5035546;28;19913;-75
2021/03/24 03:06:28;;;;;;;;;;;-2.50;75.30;;;;;;5035810;28;20001;-76
2021/03/24 03:09:01;;;;;;;;;;;-2.50;75.20;;;;;;5035447;28;19954;-77
2021/03/24 03:12:05;;;;;;;;;;;-2.50;75.30;;;;;;5035445;28;19988;-76
2021/03/24 03:14:40;;;;;;;;;;;-2.50;75.20;;;;;;4958131;28;19921;-77
2021/03/24 03:17:17;;;;;;;;;;;-2.60;75.20;;;;;;4958295;28;19942;-77
2021/03/24 03:19:45;;;;;;;;;;;-2.60;75.30;;;;;;4956062;28;19910;-77
2021/03/24 03:22:15;;;;;;;;;;;-2.60;75.30;;;;;;4974556;28;19926;-76
2021/03/24 03:24:46;;;;;;;;;;;-2.60;75.50;;;;;;4974311;28;19937;-76
2021/03/24 03:27:13;;;;;;;;;;;-2.60;75.60;;;;;;4974490;28;19918;-77
2021/03/24 03:29:44;;;;;;;;;;;-2.60;75.70;;;;;;4973855;28;20383;-77
2021/03/24 03:32:13;;;;;;;;;;;-2.60;75.80;;;;;;4958085;28;20431;-75
2021/03/24 03:34:40;;;;;;;;;;;-2.60;75.80;;;;;;4974292;28;19910;-76
2021/03/24 03:37:07;;;;;;;;;;;-2.60;75.80;;;;;;4974418;28;19937;-77
2021/03/24 03:39:33;;;;;;;;;;;-2.60;76.00;;;;;;4958581;28;19910;-76
2021/03/24 03:42:00;;;;;;;;;;;-2.60;76.00;;;;;;4982048;28;19937;-76
2021/03/24 03:44:29;;;;;;;;;;;-2.50;76.20;;;;;;4970165;28;20019;-78
2021/03/24 03:46:55;;;;;;;;;;;-2.50;76.10;;;;;;5021015;28;20278;-77
2021/03/24 03:49:28;;;;;;;;;;;-2.40;76.00;;;;;;5008728;28;20317;-80
2021/03/24 03:52:13;;;;;;;;;;;-2.30;76.00;;;;;;5037091;28;20373;-78
2021/03/24 03:55:11;;;;;;;;;;;-2.30;75.80;;;;;;5022822;28;19932;-75
2021/03/24 03:57:56;;;;;;;;;;;-2.20;75.60;;;;;;5001011;28;19909;-77
2021/03/24 04:00:21;;;;;;;;;;;-2.10;75.50;;;;;;5016487;28;19917;-78
2021/03/24 04:02:53;;;;;;;;;;;-2.00;75.40;;;;;;5034421;28;19909;-78
2021/03/24 04:05:20;;;;;;;;;;;-1.90;75.30;;;;;;5034247;28;19999;-77
2021/03/24 04:07:51;;;;;;;;;;;-1.90;75.30;;;;;;5034010;28;19913;-75
2021/03/24 04:10:17;;;;;;;;;;;-1.70;75.30;;;;;;5034446;28;19941;-78
2021/03/24 04:12:43;;;;;;;;;;;-1.70;75.20;;;;;;5016635;28;19909;-77
2021/03/24 04:15:11;;;;;;;;;;;-1.50;75.70;;;;;;5016336;28;19916;-75
2021/03/24 04:17:41;;;;;;;;;;;-1.30;76.30;;;;;;5033827;28;19917;-78
2021/03/24 04:20:07;;;;;;;;;;;-1.00;76.30;;;;;;5013943;28;19917;-79
2021/03/24 04:22:33;;;;;;;;;;;-0.60;75.00;;;;;;5015992;28;20274;-77
2021/03/24 04:25:01;;;;;;;;;;;-0.20;74.10;;;;;;5033770;28;19968;-75
2021/03/24 04:27:28;;;;;;;;;;;0.20;73.80;;;;;;5015970;28;19963;-77
2021/03/24 04:30:13;;;;;;;;;;;0.70;73.30;;;;;;5033562;28;19995;-78
2021/03/24 04:32:39;;;;;;;;;;;1.00;71.50;;;;;;5015559;28;19979;-76
2021/03/24 04:35:06;;;;;;;;;;;1.20;70.30;;;;;;5009312;28;20426;-76
2021/03/24 04:37:37;;;;;;;;;;;0.90;69.10;;;;;;5026395;28;19924;-78
2021/03/24 04:40:18;;;;;;;;;;;0.40;68.90;;;;;;5016673;28;19963;-77
2021/03/24 04:42:47;;;;;;;;;;;0.10;69.40;;;;;;5032734;28;19921;-77
2021/03/24 04:45:26;;;;;;;;;;;-0.10;69.80;;;;;;5031941;28;20497;-77
2021/03/24 04:47:53;;;;;;;;;;;-0.30;70.00;;;;;;5013615;28;20283;-77
2021/03/24 04:50:30;;;;;;;;;;;-0.50;70.00;;;;;;5015410;28;19916;-76
2021/03/24 04:52:58;;;;;;;;;;;-0.80;70.20;;;;;;5033386;28;19916;-76
2021/03/24 04:55:27;;;;;;;;;;;-0.90;70.60;;;;;;5021902;28;19913;-76
2021/03/24 04:57:55;;;;;;;;;;;-1.00;70.80;;;;;;5033238;28;19909;-78
2021/03/24 05:00:20;;;;;;;;;;;-1.00;70.90;;;;;;5033028;28;19963;-77
2021/03/24 05:02:51;;;;;;;;;;;-1.00;71.00;;;;;;5033234;28;19913;-79
2021/03/24 05:05:24;;;;;;;;;;;-1.10;71.00;;;;;;5015640;28;19913;-76
2021/03/24 05:07:54;;;;;;;;;;;-1.00;71.10;;;;;;5015421;28;19909;-79
2021/03/24 05:10:23;;;;;;;;;;;-0.80;71.00;;;;;;5015469;28;20301;-79
2021/03/24 05:12:56;;;;;;;;;;;-0.80;70.80;;;;;;5027960;28;19960;-77
2021/03/24 05:15:25;;;;;;;;;;;-0.90;70.90;;;;;;5025499;28;20113;-77
2021/03/24 05:17:51;;;;;;;;;;;-1.10;71.00;;;;;;5001741;28;20337;-79
2021/03/24 05:20:35;;;;;;;;;;;-1.10;71.20;;;;;;5031966;28;19936;-80
2021/03/24 05:23:05;;;;;;;;;;;-1.10;71.30;;;;;;5034010;28;19909;-77
2021/03/24 05:25:32;;;;;;;;;;;-1.10;71.50;;;;;;5017490;28;19983;-78
2021/03/24 05:28:03;;;;;;;;;;;-1.10;71.40;;;;;;5030723;28;19909;-81
2021/03/24 05:30:37;;;;;;;;;;;-1.10;71.50;;;;;;5001020;28;19913;-77
2021/03/24 05:33:13;;;;;;;;;;;-1.00;71.60;;;;;;5025167;28;19920;-77
2021/03/24 05:35:53;;;;;;;;;;;-1.00;71.20;;;;;;5024586;28;19909;-77
2021/03/24 05:38:38;;;;;;;;;;;-1.00;70.70;;;;;;5000320;28;19919;-76
2021/03/24 05:41:07;;;;;;;;;;;-0.90;70.70;;;;;;5003872;28;19925;-78
2021/03/24 05:43:40;;;;;;;;;;;-0.90;70.70;;;;;;4989370;28;19925;-76
2021/03/24 05:46:15;;;;;;;;;;;-0.90;70.60;;;;;;4991931;28;19932;-76
2021/03/24 05:48:50;;;;;;;;;;;-0.80;70.20;;;;;;5012631;28;20367;-78
2021/03/24 05:51:16;;;;;;;;;;;-0.80;70.10;;;;;;4995064;28;19909;-77
2021/03/24 05:54:01;;;;;;;;;;;-0.80;70.10;;;;;;5015220;28;19919;-77
2021/03/24 05:56:35;;;;;;;;;;;-0.70;70.00;;;;;;4999078;28;19917;-77
2021/03/24 05:59:11;;;;;;;;;;;-0.60;70.00;;;;;;5016640;28;19909;-76
2021/03/24 06:01:41;;;;;;;;;;;-0.60;70.30;;;;;;4998698;28;19921;-74
2021/03/24 06:04:10;;;;;;;;;;;-0.50;70.60;;;;;;5016449;28;20382;-76
2021/03/24 06:06:45;;;;;;;;;;;-0.40;70.30;;;;;;5016619;28;19944;-76
2021/03/24 06:09:29;;;;;;;;;;;-0.30;69.70;;;;;;4998876;28;19910;-78
2021/03/24 06:12:13;;;;;;;;;;;-0.30;69.30;;;;;;5016756;28;19910;-78
2021/03/24 06:14:57;;;;;;;;;;;-0.20;69.30;;;;;;4983017;28;20224;-77
2021/03/24 06:17:23;;;;;;;;;;;-0.10;69.20;;;;;;4993781;28;19909;-77
2021/03/24 06:20:01;;;;;;;;;;;-0.10;69.10;;;;;;5014252;28;19955;-77
2021/03/24 06:22:45;;;;;;;;;;;0.00;68.50;;;;;;4998636;28;19917;-76
2021/03/24 06:25:16;;;;;;;;;;;-0.10;68.00;;;;;;5017174;28;20363;-77
2021/03/24 06:27:58;;;;;;;;;;;0.00;68.00;;;;;;4999412;28;20385;-78
2021/03/24 06:30:26;;;;;;;;;;;0.00;68.50;;;;;;5016551;28;20389;-79
2021/03/24 06:33:10;;;;;;;;;;;0.10;67.80;;;;;;5016427;28;19914;-80
2021/03/24 06:35:39;;;;;;;;;;;0.10;67.70;;;;;;5000076;28;19913;-80
2021/03/24 06:38:08;;;;;;;;;;;0.10;67.60;;;;;;5000651;28;19910;-77
2021/03/24 06:40:47;;;;;;;;;;;0.20;67.60;;;;;;5016274;28;19921;-77
2021/03/24 06:43:31;;;;;;;;;;;0.30;67.70;;;;;;5019021;28;19921;-79
2021/03/24 06:46:11;;;;;;;;;;;0.40;67.50;;;;;;5012674;28;19909;-79
2021/03/24 06:48:36;;;;;;;;;;;0.40;66.90;;;;;;5035934;28;20282;-79
2021/03/24 06:51:11;;;;;;;;;;;0.50;66.80;;;;;;5018578;28;20004;-80
2021/03/24 06:53:50;;;;;;;;;;;0.60;66.60;;;;;;5019570;28;20001;-80
2021/03/24 06:56:25;;;;;;;;;;;0.60;66.50;;;;;;5019523;28;19916;-79
2021/03/24 06:59:09;;;;;;;;;;;0.70;66.10;;;;;;5036120;28;20270;-79
2021/03/24 07:01:49;;;;;;;;;;;0.80;65.60;;;;;;5038890;28;19921;-80
2021/03/24 07:04:24;;;;;;;;;;;0.90;65.30;;;;;;5041035;28;19913;-77
2021/03/24 07:06:53;;;;;;;;;;;1.00;64.80;;;;;;5018288;28;19909;-80
2021/03/24 07:09:26;;;;;;;;;;;1.10;64.70;;;;;;5035909;28;19909;-79
2021/03/24 07:11:55;;;;;;;;;;;1.20;64.50;;;;;;5035576;28;19913;-79
2021/03/24 07:14:39;;;;;;;;;;;1.30;64.20;;;;;;5017850;28;19909;-79
2021/03/24 07:17:20;;;;;;;;;;;1.40;62.80;;;;;;5038951;28;19909;-79
2021/03/24 07:20:07;;;;;;;;;;;1.50;63.30;;;;;;5027836;28;19932;-81
2021/03/24 07:22:39;;;;;;;;;;;2.30;63.20;;;;;;5035226;28;20441;-80
2021/03/24 07:25:23;;;;;;;;;;;4.50;63.90;;;;;;5035399;28;19955;-80
2021/03/24 07:27:57;;;;;;;;;;;7.00;58.90;;;;;;5035331;28;20347;-82
2021/03/24 07:30:22;;;;;;;;;;;9.40;54.90;;;;;;5017446;28;19909;-81
2021/03/24 07:32:53;;;;;;;;;;;11.40;52.10;;;;;;5003276;28;19915;-80
2021/03/24 07:35:37;;;;;;;;;;;13.10;48.20;;;;;;5034862;28;19972;-79
2021/03/24 07:38:38;;;;;;;;;;;14.30;44.80;;;;;;5017000;28;19913;-81
2021/03/24 07:41:23;;;;;;;;;;;15.80;44.80;;;;;;5003030;28;19913;-80
2021/03/24 07:43:55;;;;;;;;;;;16.70;41.90;;;;;;5007571;28;19928;-79
2021/03/24 07:46:30;;;;;;;;;;;17.10;39.70;;;;;;5015614;28;19914;-80
2021/03/24 07:48:58;;;;;;;;;;;17.60;38.00;;;;;;5015008;28;19941;-82
2021/03/24 07:51:39;;;;;;;;;;;18.40;38.70;;;;;;5015286;28;19925;-79
2021/03/24 07:54:07;;;;;;;;;;;18.70;35.90;;;;;;4997959;28;19960;-81
2021/03/24 07:56:37;;;;;;;;;;;18.10;33.50;;;;;;5015561;28;19910;-82
2021/03/24 07:59:15;;;;;;;;;;;17.80;33.00;;;;;;5014978;28;19956;-79
2021/03/24 08:01:47;;;;;;;;;;;18.40;33.50;;;;;;5016414;28;19909;-80
2021/03/24 08:04:16;;;;;;;;;;;18.60;30.10;;;;;;5015196;28;19909;-80
2021/03/24 08:06:47;;;;;;;;;;;18.50;30.00;;;;;;5015482;28;19913;-81
2021/03/24 08:09:31;;;;;;;;;;;18.40;29.40;;;;;;5014752;28;19996;-79
2021/03/24 08:12:14;;;;;;;;;;;18.10;29.10;;;;;;5015087;28;19918;-80
2021/03/24 08:14:51;;;;;;;;;;;18.20;30.20;;;;;;4998347;28;20433;-80
2021/03/24 08:17:19;;;;;;;;;;;19.00;30.40;;;;;;5014713;28;20326;-81
2021/03/24 08:20:13;;;;;;;;;;;19.50;29.20;;;;;;4994753;28;19909;-80
2021/03/24 08:22:58;;;;;;;;;;;19.00;28.00;;;;;;4996815;28;19960;-81
2021/03/24 08:25:35;;;;;;;;;;;18.40;28.60;;;;;;4974418;28;20043;-81
2021/03/24 08:28:27;;;;;;;;;;;19.00;28.30;;;;;;5015127;28;20272;-80
2021/03/24 08:30:53;;;;;;;;;;;19.10;27.90;;;;;;5010753;28;19918;-81
2021/03/24 08:33:27;;;;;;;;;;;18.80;28.10;;;;;;5014287;28;19964;-80
2021/03/24 08:36:11;;;;;;;;;;;19.70;28.70;;;;;;5014428;28;19910;-81
2021/03/24 08:38:45;;;;;;;;;;;20.40;27.50;;;;;;4982734;28;19914;-79
2021/03/24 08:41:14;;;;;;;;;;;20.80;27.50;;;;;;5004406;28;19910;-81
2021/03/24 08:43:54;;;;;;;;;;;20.50;26.20;;;;;;5033877;28;19916;-81
2021/03/24 08:46:24;;;;;;;;;;;20.60;27.10;;;;;;5033738;28;20323;-81
2021/03/24 08:48:58;;;;;;;;;;;21.30;27.20;;;;;;5033123;28;19909;-81
2021/03/24 08:51:24;;;;;;;;;;;21.20;25.40;;;;;;5033325;28;20374;-81
2021/03/24 08:54:04;;;;;;;;;;;20.40;25.30;;;;;;5033538;28;19910;-81
2021/03/24 08:56:35;;;;;;;;;;;20.60;26.10;;;;;;5033725;28;19916;-80
2021/03/24 08:59:12;;;;;;;;;;;21.20;25.90;;;;;;5033351;28;19916;-79
2021/03/24 09:01:45;;;;;;;;;;;21.00;25.80;;;;;;5015737;28;19910;-79
2021/03/24 09:04:20;;;;;;;;;;;21.00;25.30;;;;;;5033492;28;19920;-81
2021/03/24 09:06:57;;;;;;;;;;;21.20;25.40;;;;;;5017363;28;19959;-81
2021/03/24 09:09:37;;;;;;;;;;;20.80;25.40;;;;;;5036363;28;19916;-81
2021/03/24 09:12:03;;;;;;;;;;;20.90;24.80;;;;;;5008017;28;19917;-81
2021/03/24 09:14:45;;;;;;;;;;;20.80;24.80;;;;;;5031442;28;19924;-80
2021/03/24 09:17:32;;;;;;;;;;;21.00;24.70;;;;;;5033336;28;19920;-81
2021/03/24 09:20:21;;;;;;;;;;;21.60;24.50;;;;;;5031746;28;19913;-81
2021/03/24 09:23:09;;;;;;;;;;;20.50;24.20;;;;;;5033753;28;20383;-82
2021/03/24 09:25:50;;;;;;;;;;;20.30;24.40;;;;;;5015506;28;20381;-81
2021/03/24 09:28:49;;;;;;;;;;;20.40;24.40;;;;;;5032444;28;19910;-83
2021/03/24 09:31:28;;;;;;;;;;;20.70;24.10;;;;;;5034188;28;19921;-81
2021/03/24 09:34:13;;;;;;;;;;;20.70;24.70;;;;;;5015056;28;19928;-80
2021/03/24 09:36:38;;;;;;;;;;;21.30;24.70;;;;;;5015490;28;19913;-81
2021/03/24 09:39:17;;;;;;;;;;;22.00;24.00;;;;;;5032974;28;19962;-82
2021/03/24 09:41:47;;;;;;;;;;;22.20;23.10;;;;;;5012609;28;20394;-81
2021/03/24 09:44:20;;;;;;;;;;;21.50;22.50;;;;;;4995759;28;19917;-81
2021/03/24 09:46:48;;;;;;;;;;;20.20;22.90;;;;;;5013280;28;19955;-80
2021/03/24 09:49:21;;;;;;;;;;;19.50;23.60;;;;;;5013375;28;19964;-80
2021/03/24 09:51:51;;;;;;;;;;;19.30;24.00;;;;;;4995133;28;19918;-81
2021/03/24 09:54:24;;;;;;;;;;;19.40;23.90;;;;;;5013516;28;19957;-81
2021/03/24 09:57:12;;;;;;;;;;;19.20;24.10;;;;;;5014392;28;19910;-80
2021/03/24 09:59:44;;;;;;;;;;;19.20;24.20;;;;;;5011874;28;19909;-79
2021/03/24 10:02:20;;;;;;;;;;;19.60;24.20;;;;;;5032823;28;19916;-81
2021/03/24 10:04:51;;;;;;;;;;;20.00;23.90;;;;;;5015555;28;20367;-80
2021/03/24 10:07:24;;;;;;;;;;;20.00;23.90;;;;;;5033813;28;19909;-80
2021/03/24 10:09:54;;;;;;;;;;;20.30;24.10;;;;;;5015412;28;19916;-81
2021/03/24 10:12:24;;;;;;;;;;;20.60;23.80;;;;;;5033408;28;19917;-81
2021/03/24 10:14:53;;;;;;;;;;;20.60;23.20;;;;;;5033746;28;19909;-79
2021/03/24 10:17:26;;;;;;;;;;;20.20;23.30;;;;;;5033511;28;20349;-83
2021/03/24 10:20:01;;;;;;;;;;;20.50;23.50;;;;;;5031216;28;19909;-80
2021/03/24 10:22:53;;;;;;;;;;;20.70;23.00;;;;;;5034220;28;19910;-81
2021/03/24 10:25:26;;;;;;;;;;;19.80;22.90;;;;;;5029857;28;19917;-79
2021/03/24 10:27:53;;;;;;;;;;;18.00;23.30;;;;;;5032700;28;19909;-80
2021/03/24 10:30:54;;;;;;;;;;;16.20;24.10;;;;;;5033017;28;20329;-81
2021/03/24 10:33:26;;;;;;;;;;;14.70;24.80;;;;;;4972014;28;19984;-81
2021/03/24 10:35:58;;;;;;;;;;;13.50;25.90;;;;;;4972089;28;19957;-81
2021/03/24 10:38:50;;;;;;;;;;;12.50;26.60;;;;;;4966545;28;20431;-80
2021/03/24 10:41:28;;;;;;;;;;;11.50;27.40;;;;;;4942228;28;19922;-81
2021/03/24 10:43:54;;;;;;;;;;;10.90;27.90;;;;;;4939857;29;19911;-80
2021/03/24 10:46:26;;;;;;;;;;;10.40;28.70;;;;;;4955801;29;19917;-81
2021/03/24 10:48:56;;;;;;;;;;;10.10;29.20;;;;;;4955881;29;20013;-81
2021/03/24 10:52:00;;;;;;;;;;;9.80;29.60;;;;;;4949560;28;20002;-81
2021/03/24 10:54:27;;;;;;;;;;;9.60;30.20;;;;;;4905890;29;19915;-81
2021/03/24 10:56:52;;;;;;;;;;;9.30;30.50;;;;;;4917888;29;20387;-80
2021/03/24 10:59:27;;;;;;;;;;;8.90;31.10;;;;;;4917601;29;19911;-83
2021/03/24 11:02:04;;;;;;;;;;;8.70;31.40;;;;;;4917819;29;19911;-80
2021/03/24 11:04:29;;;;;;;;;;;8.40;31.80;;;;;;4905788;29;19911;-78
2021/03/24 11:06:55;;;;;;;;;;;8.10;32.30;;;;;;4932327;29;19914;-78
2021/03/24 11:09:23;;;;;;;;;;;8.00;32.40;;;;;;4938346;29;19922;-80
2021/03/24 11:11:57;;;;;;;;;;;7.90;32.80;;;;;;4936066;29;19962;-79
2021/03/24 11:14:25;;;;;;;;;;;7.90;33.20;;;;;;4935803;29;19911;-80
2021/03/24 11:16:52;;;;;;;;;;;7.90;33.40;;;;;;4920016;29;20324;-81
2021/03/24 11:19:31;;;;;;;;;;;7.80;33.30;;;;;;4935067;29;19912;-80
2021/03/24 11:21:59;;;;;;;;;;;7.60;33.70;;;;;;4935629;29;19958;-80
2021/03/24 11:24:50;;;;;;;;;;;7.60;34.10;;;;;;4951446;28;20287;-80
2021/03/24 11:27:30;;;;;;;;;;;7.60;34.40;;;;;;4997770;28;19964;-81
2021/03/24 11:30:14;;;;;;;;;;;7.50;34.60;;;;;;4998247;28;20286;-80
2021/03/24 11:33:00;;;;;;;;;;;7.40;34.80;;;;;;5015462;28;20506;-80
2021/03/24 11:35:29;;;;;;;;;;;7.30;34.70;;;;;;5006556;28;19914;-79
2021/03/24 11:38:17;;;;;;;;;;;7.30;34.90;;;;;;5002294;28;19909;-81
2021/03/24 11:40:44;;;;;;;;;;;7.30;35.20;;;;;;5015042;28;19938;-80
2021/03/24 11:43:21;;;;;;;;;;;7.30;34.90;;;;;;5031288;28;19928;-81
2021/03/24 11:45:47;;;;;;;;;;;7.30;35.10;;;;;;4991282;28;19909;-80
2021/03/24 11:48:19;;;;;;;;;;;7.30;35.30;;;;;;5021958;28;19963;-81
2021/03/24 11:51:04;;;;;;;;;;;7.20;35.40;;;;;;5033590;28;20418;-81
2021/03/24 11:53:32;;;;;;;;;;;7.10;35.70;;;;;;5034538;28;19909;-81
2021/03/24 11:55:58;;;;;;;;;;;7.10;35.60;;;;;;5034637;28;20018;-80
2021/03/24 11:58:37;;;;;;;;;;;7.00;35.40;;;;;;5017104;28;19910;-81
2021/03/24 12:01:06;;;;;;;;;;;7.00;35.60;;;;;;5017766;28;19916;-81
2021/03/24 12:03:47;;;;;;;;;;;7.10;35.80;;;;;;5035426;28;19913;-80
2021/03/24 12:06:18;;;;;;;;;;;7.10;35.70;;;;;;5009761;28;19917;-79
2021/03/24 12:08:56;;;;;;;;;;;7.20;35.50;;;;;;5034792;28;20001;-80
2021/03/24 12:11:26;;;;;;;;;;;7.20;35.40;;;;;;5016715;28;19920;-83
2021/03/24 12:14:11;;;;;;;;;;;7.20;35.30;;;;;;5016715;28;19913;-80
2021/03/24 12:16:41;;;;;;;;;;;7.30;35.30;;;;;;5012735;28;20293;-80
2021/03/24 12:19:22;;;;;;;;;;;7.30;35.00;;;;;;5033681;28;19913;-80
2021/03/24 12:21:52;;;;;;;;;;;7.20;35.20;;;;;;5017247;28;19964;-79
2021/03/24 12:24:37;;;;;;;;;;;7.10;35.20;;;;;;5034436;28;19910;-82
2021/03/24 12:27:06;;;;;;;;;;;7.10;35.10;;;;;;5034200;28;19951;-82
2021/03/24 12:29:34;;;;;;;;;;;7.30;35.60;;;;;;5034178;28;20246;-80
2021/03/24 12:32:00;;;;;;;;;;;7.60;35.40;;;;;;5034057;28;20286;-81
2021/03/24 12:34:28;;;;;;;;;;;7.90;35.00;;;;;;5034351;28;19955;-80
2021/03/24 12:36:55;;;;;;;;;;;8.10;35.00;;;;;;5007631;28;19913;-82
2021/03/24 12:39:24;;;;;;;;;;;8.10;34.40;;;;;;5016909;28;19917;-80
2021/03/24 12:41:49;;;;;;;;;;;8.00;34.30;;;;;;5016281;28;19921;-80
2021/03/24 12:44:37;;;;;;;;;;;8.00;34.60;;;;;;5034676;28;19917;-81
2021/03/24 12:47:04;;;;;;;;;;;8.00;34.50;;;;;;5016668;28;19909;-82
2021/03/24 12:49:32;;;;;;;;;;;8.00;34.60;;;;;;5016327;28;19944;-80
2021/03/24 12:51:57;;;;;;;;;;;7.80;34.60;;;;;;5033820;28;19962;-82
2021/03/24 12:54:24;;;;;;;;;;;7.60;34.70;;;;;;5035800;28;19999;-81
2021/03/24 12:57:08;;;;;;;;;;;7.50;34.90;;;;;;5035005;28;19916;-80
2021/03/24 12:59:52;;;;;;;;;;;7.40;35.00;;;;;;5011461;28;20007;-79
2021/03/24 13:02:20;;;;;;;;;;;7.40;35.10;;;;;;5016400;28;20369;-81
2021/03/24 13:04:58;;;;;;;;;;;7.40;35.30;;;;;;5034293;28;19916;-80
2021/03/24 13:07:32;;;;;;;;;;;7.50;34.90;;;;;;5036434;28;19916;-80
2021/03/24 13:09:57;;;;;;;;;;;7.50;35.20;;;;;;5034845;28;19984;-80
2021/03/24 13:12:44;;;;;;;;;;;7.40;35.10;;;;;;5032631;28;20010;-79
2021/03/24 13:15:13;;;;;;;;;;;7.30;34.80;;;;;;5034372;28;20274;-80
2021/03/24 13:17:49;;;;;;;;;;;7.20;34.80;;;;;;5015290;28;19909;-80
2021/03/24 13:20:24;;;;;;;;;;;7.10;35.00;;;;;;5030798;28;19931;-80
2021/03/24 13:23:14;;;;;;;;;;;7.10;35.80;;;;;;5014925;28;22534;-80
2021/03/24 13:25:43;;;;;;;;;;;7.10;35.30;;;;;;5025071;28;19913;-80
2021/03/24 13:28:20;;;;;;;;;;;7.10;35.50;;;;;;5032815;28;19909;-81
2021/03/24 13:30:58;;;;;;;;;;;7.10;35.80;;;;;;5033198;28;20019;-81
2021/03/24 13:33:31;;;;;;;;;;;7.10;36.10;;;;;;5033490;28;20231;-81
2021/03/24 13:36:00;;;;;;;;;;;7.10;36.20;;;;;;5020862;28;19913;-79
2021/03/24 13:38:32;;;;;;;;;;;7.10;36.30;;;;;;5033206;28;19909;-80
2021/03/24 13:40:59;;;;;;;;;;;7.10;36.10;;;;;;5015567;28;19975;-78
2021/03/24 13:43:50;;;;;;;;;;;7.00;36.50;;;;;;5032984;28;19928;-81
2021/03/24 13:46:20;;;;;;;;;;;7.00;36.70;;;;;;5015348;28;19910;-81
2021/03/24 13:48:52;;;;;;;;;;;7.00;36.70;;;;;;5032870;28;19909;-81
2021/03/24 13:51:19;;;;;;;;;;;6.90;36.70;;;;;;5032979;28;19967;-80
2021/03/24 13:53:47;;;;;;;;;;;6.90;36.80;;;;;;5033001;28;20361;-82
2021/03/24 13:56:20;;;;;;;;;;;7.00;37.00;;;;;;5015471;28;19909;-80
2021/03/24 13:58:52;;;;;;;;;;;7.00;37.20;;;;;;5033077;28;20432;-80
2021/03/24 14:01:40;;;;;;;;;;;7.00;37.20;;;;;;5016104;28;20027;-80
2021/03/24 14:04:09;;;;;;;;;;;7.10;37.20;;;;;;5015845;28;19909;-80
2021/03/24 14:06:41;;;;;;;;;;;7.00;37.10;;;;;;5033446;28;19936;-79
2021/03/24 14:09:24;;;;;;;;;;;7.10;37.30;;;;;;5015272;28;19909;-80
2021/03/24 14:11:49;;;;;;;;;;;7.20;37.20;;;;;;5022611;28;19925;-80
2021/03/24 14:14:37;;;;;;;;;;;7.20;37.00;;;;;;5031358;28;20414;-79
2021/03/24 14:17:38;;;;;;;;;;;7.20;36.90;;;;;;5037670;28;19948;-81
2021/03/24 14:20:19;;;;;;;;;;;7.20;37.10;;;;;;5002094;28;20005;-80
2021/03/24 14:22:57;;;;;;;;;;;7.30;37.30;;;;;;5019081;28;19944;-78
2021/03/24 14:25:23;;;;;;;;;;;7.30;37.70;;;;;;5018811;28;20490;-80
2021/03/24 14:27:57;;;;;;;;;;;7.20;37.60;;;;;;5036807;28;19917;-81
2021/03/24 14:30:25;;;;;;;;;;;7.20;37.50;;;;;;5037100;28;19909;-79
2021/03/24 14:32:51;;;;;;;;;;;7.10;37.50;;;;;;5033428;28;19917;-80
2021/03/24 14:35:28;;;;;;;;;;;7.00;37.60;;;;;;5037331;28;20029;-79
2021/03/24 14:38:03;;;;;;;;;;;6.90;37.60;;;;;;5020096;28;19916;-80
2021/03/24 14:40:35;;;;;;;;;;;6.80;37.80;;;;;;5019445;28;20255;-79
2021/03/24 14:43:19;;;;;;;;;;;6.80;37.80;;;;;;5036573;28;19955;-78
2021/03/24 14:45:45;;;;;;;;;;;6.80;37.80;;;;;;5009986;28;19909;-80
2021/03/24 14:48:13;;;;;;;;;;;6.80;37.80;;;;;;5037122;28;19975;-80
2021/03/24 14:50:46;;;;;;;;;;;6.70;37.90;;;;;;5036331;28;19983;-80
2021/03/24 14:53:21;;;;;;;;;;;6.70;38.00;;;;;;5036276;28;19949;-78
2021/03/24 14:56:00;;;;;;;;;;;6.60;38.10;;;;;;5036143;28;19909;-80